Time;durP1;ratioP1;P1;durP2;ratioP2;P2;SDS_P1;SDS_P2;PMS_P1;PMS_P2;Temp;Humidity;BMP_temperature;BMP_pressure;BME280_temperature;BME280_humidity;BME280_pressure;Samples;Min_cycle;Max_cycle;Signal;HPM_P1;HPM_P2
2023/06/18 00:00:18;;;;;;;0.50;0.30;;;18.90;75.20;;;;;;5009083;28;20467;-82
2023/06/18 00:02:45;;;;;;;0.50;0.30;;;18.90;75.90;;;;;;4993384;28;20543;-81
2023/06/18 00:05:12;;;;;;;0.60;0.60;;;18.90;77.20;;;;;;5001276;28;20797;-82
2023/06/18 00:07:39;;;;;;;0.50;0.30;;;18.90;74.40;;;;;;5003431;28;20469;-82
2023/06/18 00:10:07;;;;;;;0.50;0.40;;;18.80;77.70;;;;;;5006015;28;20483;-82
2023/06/18 00:12:35;;;;;;;0.50;0.40;;;18.80;80.90;;;;;;5002798;28;20459;-82
2023/06/18 00:15:02;;;;;;;0.50;0.30;;;18.80;79.90;;;;;;5004549;28;20479;-80
2023/06/18 00:17:29;;;;;;;0.50;0.30;;;18.70;80.10;;;;;;5002866;28;20534;-83
2023/06/18 00:19:56;;;;;;;0.50;0.40;;;18.70;82.00;;;;;;5000647;28;20979;-82
2023/06/18 00:22:23;;;;;;;0.50;0.30;;;18.60;85.20;;;;;;5001295;28;20448;-82
2023/06/18 00:24:50;;;;;;;0.50;0.30;;;18.60;88.80;;;;;;5004071;28;20443;-82
2023/06/18 00:27:16;;;;;;;0.50;0.30;;;18.50;89.00;;;;;;5004069;28;20439;-82
2023/06/18 00:29:46;;;;;;;0.50;0.30;;;18.50;90.80;;;;;;5000643;28;20533;-82
2023/06/18 00:32:13;;;;;;;0.50;0.40;;;18.50;90.40;;;;;;5001468;28;20500;-82
2023/06/18 00:34:42;;;;;;;0.50;0.40;;;18.50;92.30;;;;;;5003028;28;20804;-82
2023/06/18 00:37:10;;;;;;;0.50;0.40;;;18.40;92.80;;;;;;5003882;28;20451;-82
2023/06/18 00:39:37;;;;;;;0.50;0.40;;;18.40;92.40;;;;;;5001142;28;20471;-80
2023/06/18 00:42:07;;;;;;;0.50;0.40;;;18.40;97.60;;;;;;5000454;28;20452;-82
2023/06/18 00:44:34;;;;;;;0.50;0.30;;;18.30;99.90;;;;;;5002147;28;20943;-82
2023/06/18 00:47:04;;;;;;;0.50;0.40;;;18.30;98.30;;;;;;5004070;28;20558;-82
2023/06/18 00:49:31;;;;;;;0.50;0.30;;;18.20;97.30;;;;;;5002291;28;20470;-83
2023/06/18 00:51:59;;;;;;;0.50;0.40;;;18.20;99.90;;;;;;5000487;28;20475;-82
2023/06/18 00:54:29;;;;;;;0.50;0.40;;;18.20;99.90;;;;;;5000650;28;20452;-82
2023/06/18 00:56:59;;;;;;;0.50;0.30;;;18.10;99.90;;;;;;5003814;28;20453;-82
2023/06/18 00:59:27;;;;;;;0.50;0.40;;;18.10;99.90;;;;;;5002950;28;20526;-82
2023/06/18 01:01:56;;;;;;;0.50;0.40;;;18.00;99.90;;;;;;5000274;28;20448;-82
2023/06/18 01:04:28;;;;;;;0.80;0.80;;;18.00;99.90;;;;;;4999823;28;20454;-81
2023/06/18 01:06:57;;;;;;;0.50;0.40;;;18.00;99.90;;;;;;5003612;28;20469;-82
2023/06/18 01:09:25;;;;;;;0.50;0.40;;;18.00;99.90;;;;;;5003261;28;20513;-82
2023/06/18 01:11:53;;;;;;;0.50;0.30;;;17.90;99.90;;;;;;4999991;28;20479;-83
2023/06/18 01:14:21;;;;;;;0.50;0.40;;;17.90;99.90;;;;;;5000314;28;20448;-82
2023/06/18 01:16:51;;;;;;;1.20;0.90;;;17.90;99.90;;;;;;4999962;28;20440;-82
2023/06/18 01:19:35;;;;;;;0.50;0.30;;;17.90;99.90;;;;;;4999883;28;20444;-82
2023/06/18 01:22:15;;;;;;;0.50;0.40;;;17.90;99.90;;;;;;4994120;28;20447;-82
2023/06/18 01:24:49;;;;;;;0.50;0.30;;;17.90;99.90;;;;;;5003193;28;20511;-81
2023/06/18 01:27:21;;;;;;;0.50;0.30;;;17.90;99.90;;;;;;5003495;28;20446;-81
2023/06/18 01:29:49;;;;;;;0.63;0.63;;;17.80;99.90;;;;;;5010163;28;20471;-83
2023/06/18 01:32:16;;;;;;;0.50;0.30;;;17.80;99.90;;;;;;5008143;28;20441;-81
2023/06/18 01:34:45;;;;;;;0.50;0.40;;;17.80;99.90;;;;;;5004276;28;20444;-82
2023/06/18 01:37:24;;;;;;;0.50;0.40;;;17.70;99.90;;;;;;5003322;28;20876;-82
2023/06/18 01:40:00;;;;;;;0.50;0.40;;;17.70;99.90;;;;;;4996226;28;20468;-82
2023/06/18 01:42:31;;;;;;;0.50;0.30;;;17.70;99.90;;;;;;5003357;28;20446;-83
2023/06/18 01:45:04;;;;;;;0.50;0.40;;;17.60;99.90;;;;;;5006444;28;20455;-82
2023/06/18 01:47:34;;;;;;;0.70;0.70;;;17.60;99.90;;;;;;5003579;28;20450;-82
2023/06/18 01:50:04;;;;;;;0.50;0.30;;;17.50;99.90;;;;;;4993668;28;20820;-82
2023/06/18 01:52:34;;;;;;;0.50;0.40;;;17.50;99.90;;;;;;5003228;28;20502;-82
2023/06/18 01:55:03;;;;;;;0.50;0.40;;;17.60;99.90;;;;;;5004718;28;20447;-82
2023/06/18 01:57:31;;;;;;;0.50;0.40;;;17.50;99.90;;;;;;5003249;28;21093;-82
2023/06/18 01:59:58;;;;;;;0.50;0.40;;;17.60;99.90;;;;;;5000791;28;20463;-82
2023/06/18 02:02:25;;;;;;;0.50;0.40;;;17.60;99.90;;;;;;5000978;28;20542;-82
2023/06/18 02:04:52;;;;;;;0.50;0.30;;;17.60;99.90;;;;;;5004331;28;20997;-82
2023/06/18 02:07:20;;;;;;;0.50;0.40;;;17.60;99.90;;;;;;5004121;28;20449;-81
2023/06/18 02:09:47;;;;;;;3.33;2.67;;;17.50;99.90;;;;;;5000893;28;20468;-82
2023/06/18 02:12:14;;;;;;;0.50;0.30;;;17.50;99.90;;;;;;5000897;28;20566;-82
2023/06/18 02:14:41;;;;;;;0.50;0.30;;;17.60;99.90;;;;;;5002904;28;20808;-82
2023/06/18 02:17:07;;;;;;;0.50;0.40;;;17.50;99.90;;;;;;5006420;28;20457;-82
2023/06/18 02:19:35;;;;;;;0.50;0.40;;;17.50;99.90;;;;;;5006301;28;20474;-81
2023/06/18 02:22:02;;;;;;;0.50;0.40;;;17.50;99.90;;;;;;5004480;28;20535;-82
2023/06/18 02:24:31;;;;;;;0.70;0.70;;;17.50;99.90;;;;;;5004656;28;20483;-82
2023/06/18 02:26:59;;;;;;;0.50;0.30;;;17.50;99.90;;;;;;5007944;28;20451;-82
2023/06/18 02:29:26;;;;;;;2.60;2.40;;;17.50;99.90;;;;;;5007845;28;20450;-82
2023/06/18 02:31:53;;;;;;;0.50;0.40;;;17.50;99.90;;;;;;5007986;28;20470;-81
2023/06/18 02:34:20;;;;;;;1.53;0.77;;;17.50;99.90;;;;;;5007681;28;20537;-82
2023/06/18 02:36:47;;;;;;;0.50;0.30;;;17.40;99.90;;;;;;5005104;28;20590;-82
2023/06/18 02:39:14;;;;;;;0.60;0.53;;;17.50;99.90;;;;;;5004940;28;20456;-82
2023/06/18 02:41:43;;;;;;;0.50;0.40;;;17.50;99.90;;;;;;5006011;28;20448;-82
2023/06/18 02:44:09;;;;;;;2.20;1.13;;;17.50;99.90;;;;;;5007812;28;20526;-81
2023/06/18 02:46:36;;;;;;;0.50;0.30;;;17.50;99.90;;;;;;5006528;28;20457;-82
2023/06/18 02:49:03;;;;;;;0.50;0.30;;;17.50;99.90;;;;;;5005281;28;20467;-82
2023/06/18 02:51:30;;;;;;;0.70;0.70;;;17.50;99.90;;;;;;5005444;28;20574;-82
2023/06/18 02:53:57;;;;;;;0.50;0.30;;;17.60;99.90;;;;;;5008460;28;20890;-83
2023/06/18 02:56:24;;;;;;;0.50;0.30;;;17.50;99.90;;;;;;5008134;28;20442;-81
2023/06/18 02:58:55;;;;;;;0.50;0.30;;;17.50;99.90;;;;;;5005111;28;20443;-82
2023/06/18 03:01:24;;;;;;;1.23;1.13;;;17.50;99.90;;;;;;5005127;28;20459;-82
2023/06/18 03:03:51;;;;;;;0.50;0.50;;;17.50;99.90;;;;;;5008915;28;20505;-82
2023/06/18 03:06:18;;;;;;;0.50;0.40;;;17.50;99.90;;;;;;5010519;28;20443;-80
2023/06/18 03:08:46;;;;;;;0.50;0.40;;;17.50;99.90;;;;;;5005223;28;20444;-83
2023/06/18 03:11:13;;;;;;;0.50;0.30;;;17.40;99.90;;;;;;5010606;28;20493;-82
2023/06/18 03:13:39;;;;;;;0.50;0.30;;;17.40;99.90;;;;;;5009690;28;20475;-84
2023/06/18 03:16:08;;;;;;;0.50;0.30;;;17.30;99.90;;;;;;5007949;28;20520;-82
2023/06/18 03:18:35;;;;;;;0.83;0.83;;;17.30;99.90;;;;;;5007944;28;20643;-83
2023/06/18 03:21:02;;;;;;;0.50;0.40;;;17.30;99.90;;;;;;5010365;28;20475;-82
2023/06/18 03:23:29;;;;;;;0.50;0.30;;;17.30;99.90;;;;;;5002578;28;20464;-83
2023/06/18 03:25:56;;;;;;;0.60;0.60;;;17.30;99.90;;;;;;4999351;28;20451;-83
2023/06/18 03:28:24;;;;;;;0.50;0.40;;;17.20;99.90;;;;;;5007437;28;20961;-82
2023/06/18 03:30:51;;;;;;;0.50;0.30;;;17.20;99.90;;;;;;5009993;28;20494;-82
2023/06/18 03:33:21;;;;;;;0.50;0.40;;;17.20;99.90;;;;;;5010221;28;20930;-83
2023/06/18 03:35:49;;;;;;;1.10;0.70;;;17.10;99.90;;;;;;5008431;28;20443;-83
2023/06/18 03:38:16;;;;;;;0.50;0.40;;;17.10;99.90;;;;;;5006930;28;20792;-83
2023/06/18 03:40:43;;;;;;;0.50;0.40;;;17.10;99.90;;;;;;5008217;28;20483;-82
2023/06/18 03:43:10;;;;;;;0.50;0.37;;;17.10;99.90;;;;;;5013095;28;20475;-83
2023/06/18 03:45:37;;;;;;;0.50;0.40;;;17.10;99.90;;;;;;4999283;28;20547;-82
2023/06/18 03:48:04;;;;;;;0.50;0.40;;;17.10;99.90;;;;;;5009959;28;20526;-83
2023/06/18 03:50:32;;;;;;;0.50;0.33;;;17.10;99.90;;;;;;5009883;28;20466;-82
2023/06/18 03:53:00;;;;;;;0.50;0.40;;;17.10;99.90;;;;;;4998749;28;20503;-82
2023/06/18 03:55:26;;;;;;;0.50;0.33;;;17.10;99.90;;;;;;5006119;28;20452;-82
2023/06/18 03:57:53;;;;;;;0.50;0.40;;;17.10;99.90;;;;;;5009218;28;20531;-82
2023/06/18 04:00:20;;;;;;;0.50;0.30;;;17.10;99.90;;;;;;5009743;28;20572;-83
2023/06/18 04:02:47;;;;;;;0.50;0.40;;;17.10;99.90;;;;;;5007294;28;20450;-82
2023/06/18 04:05:14;;;;;;;0.50;0.30;;;17.20;99.90;;;;;;5003841;28;20447;-82
2023/06/18 04:07:42;;;;;;;0.50;0.30;;;17.20;99.90;;;;;;5007733;28;20513;-82
2023/06/18 04:10:10;;;;;;;0.50;0.40;;;17.20;99.90;;;;;;5006139;28;20527;-82
2023/06/18 04:12:37;;;;;;;0.50;0.40;;;17.20;99.90;;;;;;5006858;28;20479;-82
2023/06/18 04:15:04;;;;;;;0.50;0.33;;;17.30;99.90;;;;;;5009633;28;20841;-83
2023/06/18 04:17:39;;;;;;;0.50;0.40;;;17.30;99.90;;;;;;5009173;28;20950;-82
2023/06/18 04:20:08;;;;;;;0.50;0.30;;;17.40;99.90;;;;;;5003751;28;20459;-83
2023/06/18 04:22:34;;;;;;;0.50;0.40;;;17.40;99.90;;;;;;5041339;22;21045;-78
2023/06/18 04:25:03;;;;;;;0.50;0.30;;;17.40;99.90;;;;;;5041975;28;20521;-80
2023/06/18 04:27:30;;;;;;;2.10;1.07;;;17.40;99.90;;;;;;5043875;28;20440;-80
2023/06/18 04:29:57;;;;;;;0.50;0.30;;;17.40;99.90;;;;;;5043455;28;20462;-79
2023/06/18 04:32:24;;;;;;;0.50;0.30;;;17.40;99.90;;;;;;5043657;28;20901;-80
2023/06/18 04:34:51;;;;;;;0.50;0.40;;;17.50;99.90;;;;;;5042991;28;20442;-80
2023/06/18 04:37:17;;;;;;;0.50;0.40;;;17.50;99.90;;;;;;5044100;28;20481;-77
2023/06/18 04:39:44;;;;;;;4.43;2.20;;;17.60;99.90;;;;;;5042520;28;20514;-80
2023/06/18 04:42:12;;;;;;;0.50;0.30;;;17.60;99.90;;;;;;5043642;28;20485;-79
2023/06/18 04:44:39;;;;;;;0.50;0.40;;;17.60;99.90;;;;;;5043484;28;20442;-80
2023/06/18 04:47:06;;;;;;;0.50;0.33;;;17.70;99.90;;;;;;5043519;28;20473;-80
2023/06/18 04:49:33;;;;;;;0.60;0.50;;;17.70;99.90;;;;;;5044091;28;20945;-81
2023/06/18 04:52:00;;;;;;;0.50;0.30;;;17.80;99.90;;;;;;5036098;28;20508;-80
2023/06/18 04:54:27;;;;;;;0.50;0.30;;;17.90;99.90;;;;;;5043935;28;20885;-80
2023/06/18 04:56:57;;;;;;;3.73;0.93;;;18.00;99.90;;;;;;5043339;28;20473;-81
2023/06/18 04:59:25;;;;;;;0.50;0.40;;;18.20;99.90;;;;;;5042437;28;20450;-79
2023/06/18 05:01:52;;;;;;;0.50;0.30;;;18.30;99.90;;;;;;5037607;28;20523;-78
2023/06/18 05:04:19;;;;;;;0.50;0.40;;;18.40;99.90;;;;;;5038118;28;20529;-80
2023/06/18 05:06:46;;;;;;;0.50;0.30;;;18.60;99.90;;;;;;5037630;28;20538;-80
2023/06/18 05:09:13;;;;;;;0.50;0.30;;;18.70;99.90;;;;;;5037385;28;20987;-81
2023/06/18 05:11:40;;;;;;;2.57;2.40;;;18.80;99.90;;;;;;5037129;28;20510;-80
2023/06/18 05:14:06;;;;;;;0.50;0.30;;;19.00;99.90;;;;;;5038012;28;20465;-80
2023/06/18 05:16:34;;;;;;;0.60;0.40;;;19.20;99.90;;;;;;5038109;28;20464;-80
2023/06/18 05:19:01;;;;;;;0.50;0.30;;;19.40;99.90;;;;;;5030409;28;20469;-80
2023/06/18 05:21:28;;;;;;;0.50;0.30;;;19.50;99.90;;;;;;5037827;28;20473;-80
2023/06/18 05:23:55;;;;;;;0.50;0.30;;;19.70;99.90;;;;;;5038358;28;20444;-80
2023/06/18 05:26:22;;;;;;;0.50;0.30;;;19.90;99.90;;;;;;5038863;28;20877;-80
2023/06/18 05:28:49;;;;;;;0.50;0.30;;;20.10;99.90;;;;;;5038209;28;20441;-81
2023/06/18 05:31:16;;;;;;;0.50;0.30;;;20.20;99.90;;;;;;5038455;28;20809;-80
2023/06/18 05:33:44;;;;;;;0.50;0.30;;;20.40;99.90;;;;;;5038320;28;20477;-80
2023/06/18 05:36:10;;;;;;;0.50;0.30;;;20.60;99.90;;;;;;5038708;28;20458;-79
2023/06/18 05:38:37;;;;;;;0.50;0.40;;;20.80;99.90;;;;;;5038469;28;20460;-81
2023/06/18 05:41:04;;;;;;;0.50;0.40;;;20.90;99.90;;;;;;5030389;28;20505;-80
2023/06/18 05:43:31;;;;;;;0.50;0.30;;;21.10;99.90;;;;;;5038607;28;20461;-80
2023/06/18 05:45:58;;;;;;;0.50;0.40;;;21.20;99.90;;;;;;5038024;28;21970;-80
2023/06/18 05:48:26;;;;;;;0.60;0.50;;;21.20;99.90;;;;;;5038251;28;20518;-79
2023/06/18 05:50:54;;;;;;;0.50;0.30;;;21.20;99.90;;;;;;5039274;28;20973;-80
2023/06/18 05:53:21;;;;;;;0.50;0.30;;;21.20;99.90;;;;;;5042351;28;20478;-76
2023/06/18 05:55:48;;;;;;;0.50;0.30;;;21.30;99.90;;;;;;5041841;28;20509;-80
2023/06/18 05:58:15;;;;;;;0.50;0.30;;;21.40;99.90;;;;;;5045550;28;20521;-80
2023/06/18 06:00:42;;;;;;;0.50;0.30;;;21.50;99.90;;;;;;5044516;28;20449;-80
2023/06/18 06:03:10;;;;;;;0.50;0.30;;;21.70;99.90;;;;;;5045148;28;20517;-83
2023/06/18 06:05:37;;;;;;;0.50;0.30;;;21.80;99.90;;;;;;5048418;28;20441;-83
2023/06/18 06:08:06;;;;;;;0.50;0.50;;;21.90;99.90;;;;;;5039685;28;20434;-84
2023/06/18 06:10:34;;;;;;;0.50;0.30;;;22.00;99.90;;;;;;5046662;28;20447;-80
2023/06/18 06:13:02;;;;;;;0.53;0.40;;;22.10;99.90;;;;;;5042798;28;20900;-81
2023/06/18 06:15:29;;;;;;;0.50;0.30;;;22.20;99.90;;;;;;5042729;28;20516;-80
2023/06/18 06:17:55;;;;;;;0.50;0.30;;;22.40;99.90;;;;;;5042327;28;20540;-80
2023/06/18 06:20:22;;;;;;;0.50;0.30;;;22.50;99.90;;;;;;5042405;28;20526;-80
2023/06/18 06:22:50;;;;;;;0.50;0.30;;;22.70;99.90;;;;;;5042648;28;20464;-80
2023/06/18 06:25:18;;;;;;;0.50;0.30;;;22.80;99.90;;;;;;5042892;28;20445;-80
2023/06/18 06:27:45;;;;;;;0.50;0.30;;;22.90;98.60;;;;;;5042668;28;20472;-80
2023/06/18 06:30:12;;;;;;;0.50;0.30;;;23.00;99.80;;;;;;5042469;28;20960;-80
2023/06/18 06:32:39;;;;;;;0.50;0.30;;;23.20;99.90;;;;;;5042585;28;20557;-80
2023/06/18 06:35:07;;;;;;;0.50;0.40;;;23.40;99.90;;;;;;5043786;28;20449;-79
2023/06/18 06:37:34;;;;;;;0.50;0.30;;;23.70;99.90;;;;;;5043079;28;20524;-80
2023/06/18 06:40:01;;;;;;;0.50;0.30;;;24.00;99.40;;;;;;5042675;28;20502;-83
2023/06/18 06:42:29;;;;;;;0.50;0.40;;;24.10;95.80;;;;;;5043700;28;20482;-80
2023/06/18 06:44:56;;;;;;;0.70;0.50;;;24.50;94.30;;;;;;5042335;28;20446;-80
2023/06/18 06:47:23;;;;;;;0.50;0.30;;;24.70;92.70;;;;;;5043301;28;20878;-80
2023/06/18 06:49:49;;;;;;;0.50;0.33;;;25.30;91.80;;;;;;5043812;28;20536;-80
2023/06/18 06:52:16;;;;;;;0.50;0.30;;;25.90;90.50;;;;;;5044397;28;20481;-80
2023/06/18 06:54:43;;;;;;;0.50;0.30;;;26.60;86.60;;;;;;5045207;28;20461;-80
2023/06/18 06:57:10;;;;;;;0.50;0.30;;;26.90;84.70;;;;;;5046008;28;20430;-80
2023/06/18 06:59:39;;;;;;;1.53;0.60;;;27.20;83.90;;;;;;5045154;28;20446;-80
2023/06/18 07:02:06;;;;;;;0.50;0.40;;;27.60;78.40;;;;;;5043688;28;20522;-80
2023/06/18 07:04:33;;;;;;;0.50;0.30;;;27.70;77.30;;;;;;5041722;28;20820;-79
2023/06/18 07:07:00;;;;;;;0.60;0.60;;;28.00;76.00;;;;;;5043112;28;20438;-80
2023/06/18 07:09:26;;;;;;;0.73;0.73;;;28.30;74.50;;;;;;5044921;28;20442;-80
2023/06/18 07:11:53;;;;;;;0.50;0.30;;;28.40;73.30;;;;;;5044136;28;20470;-80
2023/06/18 07:14:20;;;;;;;0.50;0.30;;;28.40;71.80;;;;;;5044407;28;20442;-82
2023/06/18 07:16:48;;;;;;;0.70;0.40;;;28.70;71.70;;;;;;5045240;28;21001;-80
2023/06/18 07:19:15;;;;;;;1.10;1.00;;;28.90;69.80;;;;;;5044755;28;20456;-79
2023/06/18 07:21:42;;;;;;;0.50;0.30;;;28.80;70.70;;;;;;5045089;28;20521;-80
2023/06/18 07:24:09;;;;;;;0.50;0.30;;;28.90;71.30;;;;;;5045468;28;20454;-80
2023/06/18 07:26:36;;;;;;;0.50;0.30;;;29.10;69.50;;;;;;5045124;28;20510;-81
2023/06/18 07:29:02;;;;;;;0.80;0.80;;;29.20;67.90;;;;;;5044584;28;20458;-80
2023/06/18 07:31:29;;;;;;;0.50;0.30;;;29.20;67.80;;;;;;5044488;28;20508;-81
2023/06/18 07:33:57;;;;;;;10.87;4.13;;;29.40;68.90;;;;;;5044887;28;20497;-80
2023/06/18 07:36:24;;;;;;;0.50;0.30;;;29.80;70.40;;;;;;5044689;28;20815;-81
2023/06/18 07:38:51;;;;;;;0.83;0.83;;;30.00;66.70;;;;;;5044812;28;20446;-81
2023/06/18 07:41:18;;;;;;;0.50;0.30;;;30.10;65.90;;;;;;5045336;28;20445;-80
2023/06/18 07:43:45;;;;;;;1.33;1.00;;;30.50;69.20;;;;;;5045422;28;20906;-79
2023/06/18 07:46:12;;;;;;;0.50;0.40;;;31.00;67.20;;;;;;5045893;28;20477;-81
2023/06/18 07:48:39;;;;;;;2.33;0.90;;;31.50;66.80;;;;;;5045090;28;20450;-80
2023/06/18 07:51:07;;;;;;;0.50;0.40;;;32.10;62.50;;;;;;5045684;28;20442;-81
2023/06/18 07:53:34;;;;;;;0.60;0.40;;;32.30;61.90;;;;;;5045736;28;20497;-81
2023/06/18 07:56:01;;;;;;;0.50;0.40;;;32.70;62.30;;;;;;5045317;28;20449;-80
2023/06/18 07:58:28;;;;;;;0.60;0.57;;;32.80;58.00;;;;;;5045653;28;20783;-81
2023/06/18 08:00:55;;;;;;;2.10;1.90;;;33.10;59.30;;;;;;5045840;28;20511;-82
2023/06/18 08:03:22;;;;;;;0.53;0.50;;;33.00;58.60;;;;;;5045959;28;20522;-77
2023/06/18 08:05:49;;;;;;;0.50;0.30;;;33.20;57.30;;;;;;5044116;28;20441;-80
2023/06/18 08:08:18;;;;;;;1.37;1.27;;;32.40;55.60;;;;;;5044488;28;20986;-80
2023/06/18 08:10:45;;;;;;;1.57;1.33;;;31.80;56.80;;;;;;5043742;28;20471;-80
2023/06/18 08:13:11;;;;;;;0.50;0.30;;;31.30;58.10;;;;;;5044137;28;20546;-83
2023/06/18 08:15:38;;;;;;;0.80;0.80;;;31.10;59.00;;;;;;5045560;28;20473;-81
2023/06/18 08:18:05;;;;;;;0.50;0.40;;;31.50;58.70;;;;;;5043720;28;20452;-79
2023/06/18 08:20:32;;;;;;;1.20;0.90;;;31.40;56.60;;;;;;5044126;28;20435;-77
2023/06/18 08:22:59;;;;;;;0.93;0.40;;;31.00;55.80;;;;;;5043633;28;20560;-81
2023/06/18 08:25:27;;;;;;;2.00;1.90;;;30.90;57.10;;;;;;5044583;28;20469;-78
2023/06/18 08:27:54;;;;;;;2.90;0.63;;;31.50;58.60;;;;;;5044093;28;20481;-81
2023/06/18 08:30:21;;;;;;;2.60;1.10;;;31.60;55.90;;;;;;5044533;28;20546;-81
2023/06/18 08:32:48;;;;;;;0.50;0.30;;;31.60;56.50;;;;;;5042867;28;20478;-77
2023/06/18 08:35:15;;;;;;;0.50;0.40;;;31.30;56.10;;;;;;5044050;28;20452;-80
2023/06/18 08:37:42;;;;;;;0.50;0.30;;;31.10;55.10;;;;;;5043811;28;20858;-80
2023/06/18 08:40:13;;;;;;;0.80;0.60;;;31.30;56.10;;;;;;5043908;28;20529;-80
2023/06/18 08:42:41;;;;;;;0.70;0.70;;;31.90;55.40;;;;;;5044210;28;20454;-80
2023/06/18 08:45:09;;;;;;;1.70;1.23;;;31.80;54.60;;;;;;5044650;28;20466;-81
2023/06/18 08:47:37;;;;;;;0.50;0.30;;;32.60;56.10;;;;;;5043853;28;20442;-81
2023/06/18 08:50:07;;;;;;;0.80;0.80;;;32.60;53.10;;;;;;5044072;28;20466;-81
2023/06/18 08:52:34;;;;;;;0.50;0.30;;;32.80;54.10;;;;;;5045527;28;20562;-82
2023/06/18 08:55:03;;;;;;;0.50;0.50;;;33.30;52.50;;;;;;5044981;28;20825;-82
2023/06/18 08:57:33;;;;;;;2.20;2.00;;;33.30;50.20;;;;;;5044779;28;20958;-80
2023/06/18 09:00:03;;;;;;;0.50;0.30;;;33.50;49.80;;;;;;5044577;28;20514;-80
2023/06/18 09:02:31;;;;;;;0.50;0.30;;;33.50;51.90;;;;;;5044592;28;20472;-81
2023/06/18 09:04:59;;;;;;;0.50;0.37;;;33.00;49.30;;;;;;5042721;28;20498;-80
2023/06/18 09:07:26;;;;;;;0.50;0.30;;;32.90;49.70;;;;;;5037801;28;20448;-80
2023/06/18 09:09:53;;;;;;;0.50;0.30;;;32.80;47.60;;;;;;5042399;28;20524;-81
2023/06/18 09:12:20;;;;;;;0.50;0.30;;;32.80;47.00;;;;;;5044328;28;20454;-80
2023/06/18 09:14:47;;;;;;;0.70;0.60;;;32.20;46.30;;;;;;5043756;28;20446;-81
2023/06/18 09:17:16;;;;;;;0.63;0.63;;;31.80;47.90;;;;;;5042135;28;20509;-80
2023/06/18 09:19:44;;;;;;;0.50;0.30;;;31.20;47.70;;;;;;5044339;28;20450;-83
2023/06/18 09:22:15;;;;;;;1.47;1.13;;;30.70;48.90;;;;;;5043556;28;20850;-81
2023/06/18 09:24:42;;;;;;;1.43;0.83;;;30.70;51.00;;;;;;5044121;28;20510;-80
2023/06/18 09:27:09;;;;;;;1.33;0.50;;;30.70;51.40;;;;;;5050495;28;20628;-82
2023/06/18 09:29:37;;;;;;;0.80;0.57;;;30.90;52.10;;;;;;5049998;28;20533;-81
2023/06/18 09:32:08;;;;;;;0.50;0.30;;;31.10;47.40;;;;;;5050501;28;20460;-80
2023/06/18 09:34:37;;;;;;;1.47;0.90;;;31.50;50.10;;;;;;5050501;28;20473;-82
2023/06/18 09:37:05;;;;;;;1.83;1.40;;;31.80;49.50;;;;;;5048806;28;20504;-81
2023/06/18 09:39:34;;;;;;;0.50;0.40;;;31.90;48.80;;;;;;5046996;28;20446;-78
2023/06/18 09:42:06;;;;;;;0.50;0.30;;;32.40;49.40;;;;;;5046782;28;20458;-81
2023/06/18 09:44:34;;;;;;;0.50;0.30;;;33.10;47.90;;;;;;5050042;28;20438;-81
2023/06/18 09:47:03;;;;;;;0.50;0.40;;;34.00;48.90;;;;;;5050070;28;20466;-81
2023/06/18 09:49:30;;;;;;;1.80;1.47;;;34.80;44.90;;;;;;5051072;28;20446;-81
2023/06/18 09:51:58;;;;;;;0.47;0.30;;;35.40;42.90;;;;;;5050273;28;20466;-81
2023/06/18 09:54:39;;;;;;;0.50;0.30;;;35.60;42.90;;;;;;5051381;28;20481;-78
2023/06/18 09:57:07;;;;;;;0.40;0.30;;;36.00;42.70;;;;;;5050781;28;20485;-81
2023/06/18 09:59:34;;;;;;;5.93;0.93;;;36.30;40.30;;;;;;5051269;28;20460;-80
2023/06/18 10:02:01;;;;;;;1.63;1.53;;;36.30;39.60;;;;;;5051137;28;20485;-81
2023/06/18 10:04:28;;;;;;;0.63;0.63;;;36.50;43.60;;;;;;5051484;28;20519;-81
2023/06/18 10:07:00;;;;;;;0.40;0.30;;;36.40;40.00;;;;;;5051135;28;20626;-79
2023/06/18 10:09:32;;;;;;;0.60;0.53;;;36.20;40.60;;;;;;5051527;28;20469;-81
2023/06/18 10:12:00;;;;;;;0.40;0.30;;;36.10;39.60;;;;;;5049881;28;20451;-80
2023/06/18 10:14:29;;;;;;;0.50;0.40;;;35.50;39.80;;;;;;5050432;28;20478;-80
2023/06/18 10:17:01;;;;;;;0.50;0.40;;;35.00;40.60;;;;;;5050093;28;20441;-80
2023/06/18 10:19:32;;;;;;;1.57;1.47;;;34.20;41.70;;;;;;5049122;28;20461;-80
2023/06/18 10:22:04;;;;;;;0.70;0.67;;;33.40;41.40;;;;;;5047060;28;20830;-81
2023/06/18 10:24:34;;;;;;;4.10;3.83;;;32.00;43.40;;;;;;5024299;22;20842;-81
2023/06/18 10:27:01;;;;;;;0.50;0.40;;;32.00;45.70;;;;;;5010523;28;20473;-81
2023/06/18 10:29:29;;;;;;;0.50;0.30;;;32.80;47.20;;;;;;5004197;28;21006;-81
2023/06/18 10:31:57;;;;;;;1.17;1.17;;;33.50;45.80;;;;;;5011377;28;20447;-81
2023/06/18 10:34:26;;;;;;;0.70;0.40;;;34.40;45.40;;;;;;5014385;28;20482;-80
2023/06/18 10:36:54;;;;;;;0.80;0.80;;;34.80;43.80;;;;;;5012675;28;20436;-80
2023/06/18 10:39:23;;;;;;;0.50;0.40;;;35.60;44.10;;;;;;5001550;28;20781;-82
2023/06/18 10:41:52;;;;;;;0.40;0.30;;;36.50;42.10;;;;;;5015843;28;20530;-82
2023/06/18 10:44:32;;;;;;;0.40;0.30;;;37.10;43.50;;;;;;5011732;28;20826;-81
2023/06/18 10:47:18;;;;;;;2.10;0.90;;;37.20;40.50;;;;;;5010625;28;20450;-81
2023/06/18 10:50:14;;;;;;;0.40;0.30;;;36.60;41.20;;;;;;5007900;28;20451;-82
2023/06/18 10:52:41;;;;;;;0.73;0.73;;;36.80;42.00;;;;;;5006326;28;20444;-81
2023/06/18 10:55:12;;;;;;;1.67;0.93;;;36.70;42.10;;;;;;5010200;28;20481;-82
2023/06/18 10:57:41;;;;;;;0.60;0.50;;;36.40;40.30;;;;;;5013702;28;20443;-79
2023/06/18 11:00:19;;;;;;;0.40;0.30;;;36.10;40.80;;;;;;5009798;28;20450;-81
2023/06/18 11:02:49;;;;;;;0.40;0.30;;;35.40;40.80;;;;;;5005815;28;20444;-79
2023/06/18 11:05:37;;;;;;;0.40;0.30;;;35.60;42.70;;;;;;5008587;28;20449;-82
2023/06/18 11:08:06;;;;;;;0.53;0.43;;;36.20;43.60;;;;;;5007099;28;20515;-81
2023/06/18 11:10:36;;;;;;;1.63;1.53;;;36.60;40.20;;;;;;5007162;28;20442;-79
2023/06/18 11:13:03;;;;;;;0.50;0.40;;;37.00;40.10;;;;;;4999307;28;21025;-81
2023/06/18 11:15:30;;;;;;;0.40;0.30;;;37.40;39.50;;;;;;5006910;28;20445;-81
2023/06/18 11:18:01;;;;;;;0.77;0.77;;;37.30;40.00;;;;;;5007191;28;20503;-80
2023/06/18 11:20:30;;;;;;;5.40;4.93;;;37.50;39.80;;;;;;5000285;28;20508;-80
2023/06/18 11:22:58;;;;;;;0.60;0.50;;;37.60;40.90;;;;;;5007736;28;20447;-81
2023/06/18 11:25:27;;;;;;;0.40;0.30;;;38.30;39.20;;;;;;5000031;28;20479;-81
2023/06/18 11:27:58;;;;;;;0.50;0.50;;;38.00;39.80;;;;;;5015628;28;20459;-77
2023/06/18 11:30:26;;;;;;;0.40;0.30;;;37.80;40.60;;;;;;4995189;28;20476;-81
2023/06/18 11:32:53;;;;;;;0.50;0.50;;;37.70;41.10;;;;;;5018934;28;20443;-81
2023/06/18 11:35:19;;;;;;;0.40;0.30;;;37.80;41.00;;;;;;5019261;28;20540;-81
2023/06/18 11:37:46;;;;;;;0.40;0.30;;;38.00;38.80;;;;;;5018188;28;20451;-80
2023/06/18 11:40:13;;;;;;;0.60;0.47;;;38.80;39.90;;;;;;5017612;28;20567;-80
2023/06/18 11:42:49;;;;;;;0.40;0.40;;;39.10;37.90;;;;;;5012296;28;20480;-81
2023/06/18 11:45:18;;;;;;;0.40;0.30;;;38.00;38.00;;;;;;5001389;28;20464;-80
2023/06/18 11:47:47;;;;;;;0.40;0.30;;;37.10;39.30;;;;;;5018190;28;20962;-81
2023/06/18 11:50:14;;;;;;;0.40;0.30;;;36.50;40.50;;;;;;5016316;28;20448;-81
2023/06/18 11:52:41;;;;;;;0.40;0.30;;;36.10;41.20;;;;;;4999765;28;20449;-80
2023/06/18 11:55:09;;;;;;;0.40;0.30;;;36.20;42.10;;;;;;5007997;28;20482;-81
2023/06/18 11:57:36;;;;;;;0.40;0.30;;;36.60;42.30;;;;;;5013380;28;20459;-80
2023/06/18 12:00:08;;;;;;;0.60;0.60;;;37.40;43.00;;;;;;4999515;28;20448;-80
2023/06/18 12:02:39;;;;;;;0.53;0.53;;;36.70;39.90;;;;;;5003426;28;20450;-82
2023/06/18 12:05:07;;;;;;;0.50;0.40;;;36.00;40.80;;;;;;5017264;28;20859;-81
2023/06/18 12:07:34;;;;;;;0.50;0.40;;;35.10;40.90;;;;;;5010501;28;20947;-81
2023/06/18 12:10:06;;;;;;;0.60;0.53;;;34.30;41.30;;;;;;5017399;28;20815;-79
2023/06/18 12:12:41;;;;;;;0.50;0.30;;;33.80;42.60;;;;;;5018488;28;20467;-80
2023/06/18 12:15:13;;;;;;;0.50;0.40;;;33.90;43.90;;;;;;5017440;28;20514;-81
2023/06/18 12:17:53;;;;;;;0.60;0.40;;;34.10;43.80;;;;;;5017561;28;20502;-81
2023/06/18 12:20:21;;;;;;;0.60;0.60;;;33.90;42.80;;;;;;4998917;28;20938;-80
2023/06/18 12:22:49;;;;;;;0.77;0.77;;;34.10;42.90;;;;;;4997471;28;20441;-81
2023/06/18 12:25:16;;;;;;;0.50;0.30;;;34.10;42.80;;;;;;4998415;28;20439;-80
2023/06/18 12:27:44;;;;;;;0.50;0.40;;;33.90;42.30;;;;;;5011325;28;20969;-81
2023/06/18 12:30:13;;;;;;;0.50;0.40;;;33.90;43.10;;;;;;5017014;28;20515;-81
2023/06/18 12:32:41;;;;;;;1.27;1.17;;;33.90;44.60;;;;;;5017392;28;20443;-81
2023/06/18 12:35:12;;;;;;;0.50;0.30;;;34.10;44.70;;;;;;5017276;28;20479;-81
2023/06/18 12:37:42;;;;;;;2.10;1.47;;;34.70;44.40;;;;;;5017107;28;20812;-79
2023/06/18 12:40:14;;;;;;;0.60;0.60;;;35.60;43.70;;;;;;5016579;28;20929;-82
2023/06/18 12:42:41;;;;;;;0.47;0.37;;;36.70;43.20;;;;;;5011941;28;20528;-81
2023/06/18 12:45:09;;;;;;;0.60;0.50;;;37.40;41.40;;;;;;4997312;28;20460;-80
2023/06/18 12:47:42;;;;;;;0.40;0.30;;;37.40;39.70;;;;;;5002082;28;20865;-79
2023/06/18 12:50:09;;;;;;;0.50;0.50;;;36.50;40.40;;;;;;5008531;28;20516;-81
2023/06/18 12:52:41;;;;;;;0.53;0.53;;;35.50;41.50;;;;;;5002441;28;21037;-79